DAL361 KATL-CYYZ
Flight info
| Callsign | DAL361 |
|---|---|
| Flight time | N/A |
| Altitude | 41000 |
| Route | PADGT2 RAFTN DCT FLM DCT RINTE DCT QWERI NUBER6 |
| Aircraft | A359/H-FAA/L |
Departure
| Time | 2026-05-08 00:48 |
|---|---|
| Airport | Hartsfield Jackson Atlanta International Airport (KATL) |
Arrival
| Time | N/A |
|---|---|
| Airport | Toronto Pearson International Airport (CYYZ) |
| Time | Latitude | Longitude | Altitude | Speed | Heading |
|---|---|---|---|---|---|
| 2026-05-08 00:16 | 33.63990 | -84.42469 | 1016 ft | 0 kts | 316° |
| 2026-05-08 00:37 | 33.63979 | -84.42457 | 1016 ft | 3 kts | 316° |
| 2026-05-08 00:38 | 33.63952 | -84.42424 | 1015 ft | 3 kts | 299° |
| 2026-05-08 00:38 | 33.63945 | -84.42401 | 1015 ft | 3 kts | 277° |
| 2026-05-08 00:38 | 33.63945 | -84.42378 | 1015 ft | 3 kts | 256° |
| 2026-05-08 00:38 | 33.63947 | -84.42368 | 1015 ft | 0 kts | 250° |
| 2026-05-08 00:40 | 33.63948 | -84.42365 | 1014 ft | 0 kts | 250° |
| 2026-05-08 00:41 | 33.63947 | -84.42369 | 1015 ft | 5 kts | 251° |
| 2026-05-08 00:41 | 33.63904 | -84.42408 | 1015 ft | 9 kts | 192° |
| 2026-05-08 00:41 | 33.63816 | -84.42414 | 1015 ft | 14 kts | 181° |
| 2026-05-08 00:41 | 33.63719 | -84.42416 | 1013 ft | 0 kts | 179° |
| 2026-05-08 00:42 | 33.63692 | -84.42408 | 1013 ft | 13 kts | 156° |
| 2026-05-08 00:42 | 33.63658 | -84.42301 | 1012 ft | 15 kts | 90° |
| 2026-05-08 00:42 | 33.63700 | -84.42241 | 1012 ft | 13 kts | 15° |
| 2026-05-08 00:42 | 33.63816 | -84.42239 | 1011 ft | 18 kts | 357° |
| 2026-05-08 00:43 | 33.63945 | -84.42243 | 1013 ft | 19 kts | 0° |
| 2026-05-08 00:43 | 33.64072 | -84.42241 | 1016 ft | 18 kts | 360° |
| 2026-05-08 00:43 | 33.64201 | -84.42241 | 1015 ft | 20 kts | 360° |
| 2026-05-08 00:43 | 33.64342 | -84.42236 | 1016 ft | 21 kts | 1° |
| 2026-05-08 00:44 | 33.64451 | -84.42232 | 1018 ft | 14 kts | 11° |
| 2026-05-08 00:44 | 33.64518 | -84.42157 | 1020 ft | 14 kts | 57° |
| 2026-05-08 00:44 | 33.64543 | -84.42039 | 1019 ft | 16 kts | 89° |
| 2026-05-08 00:44 | 33.64544 | -84.41895 | 1019 ft | 18 kts | 90° |
| 2026-05-08 00:45 | 33.64543 | -84.41740 | 1021 ft | 19 kts | 90° |
| 2026-05-08 00:45 | 33.64543 | -84.41572 | 1022 ft | 21 kts | 90° |
| 2026-05-08 00:45 | 33.64544 | -84.41390 | 1020 ft | 23 kts | 90° |
| 2026-05-08 00:45 | 33.64544 | -84.41184 | 1018 ft | 26 kts | 90° |
| 2026-05-08 00:46 | 33.64544 | -84.41021 | 1014 ft | 0 kts | 90° |
| 2026-05-08 00:46 | 33.64544 | -84.40942 | 1012 ft | 18 kts | 90° |
| 2026-05-08 00:46 | 33.64571 | -84.40823 | 1010 ft | 10 kts | 41° |
| 2026-05-08 00:46 | 33.64575 | -84.40820 | 1010 ft | 0 kts | 37° |
| 2026-05-08 00:47 | 33.64641 | -84.40804 | 1010 ft | 13 kts | 347° |
| 2026-05-08 00:47 | 33.64675 | -84.40881 | 1013 ft | 12 kts | 274° |
| 2026-05-08 00:47 | 33.64679 | -84.41259 | 1019 ft | 90 kts | 270° |
| 2026-05-08 00:48 | 33.64675 | -84.42370 | 1051 ft | 172 kts | 271° |
| 2026-05-08 00:48 | 33.64679 | -84.43990 | 1559 ft | 215 kts | 274° |
| 2026-05-08 00:48 | 33.64756 | -84.45967 | 2160 ft | 252 kts | 277° |
| 2026-05-08 00:48 | 33.65160 | -84.48053 | 2892 ft | 257 kts | 294° |
| 2026-05-08 00:49 | 33.65935 | -84.49929 | 3543 ft | 250 kts | 299° |
| 2026-05-08 00:49 | 33.66745 | -84.51776 | 4189 ft | 249 kts | 297° |
| 2026-05-08 00:49 | 33.67519 | -84.53647 | 4749 ft | 250 kts | 295° |
| 2026-05-08 00:49 | 33.68300 | -84.55519 | 4964 ft | 252 kts | 298° |
| 2026-05-08 00:50 | 33.69425 | -84.57129 | 5003 ft | 255 kts | 319° |
| 2026-05-08 00:50 | 33.71022 | -84.58079 | 4999 ft | 261 kts | 342° |
| 2026-05-08 00:50 | 33.72845 | -84.58261 | 5133 ft | 266 kts | 357° |
| 2026-05-08 00:50 | 33.74707 | -84.58201 | 5595 ft | 269 kts | 356° |
| 2026-05-08 00:51 | 33.76588 | -84.58152 | 6146 ft | 271 kts | 355° |
| 2026-05-08 00:51 | 33.78483 | -84.58118 | 6685 ft | 274 kts | 354° |
| 2026-05-08 00:51 | 33.80402 | -84.58071 | 7215 ft | 279 kts | 356° |
| 2026-05-08 00:51 | 33.82348 | -84.57672 | 7736 ft | 287 kts | 8° |
| 2026-05-08 00:52 | 33.84276 | -84.56971 | 8295 ft | 291 kts | 10° |
| 2026-05-08 00:52 | 33.86216 | -84.56234 | 8818 ft | 294 kts | 9° |
| 2026-05-08 00:52 | 33.88176 | -84.55499 | 9389 ft | 296 kts | 8° |
| 2026-05-08 00:52 | 33.90158 | -84.54763 | 9964 ft | 301 kts | 8° |
| 2026-05-08 00:53 | 33.92213 | -84.54012 | 10487 ft | 317 kts | 8° |
| 2026-05-08 00:53 | 33.94377 | -84.53223 | 11038 ft | 332 kts | 8° |
| 2026-05-08 00:53 | 33.96634 | -84.52395 | 11577 ft | 346 kts | 8° |
| 2026-05-08 00:53 | 33.98982 | -84.51530 | 12170 ft | 359 kts | 8° |
| 2026-05-08 00:54 | 34.01414 | -84.50630 | 12742 ft | 371 kts | 7° |
| 2026-05-08 00:54 | 34.03910 | -84.49706 | 13314 ft | 381 kts | 7° |
| 2026-05-08 00:54 | 34.06472 | -84.48757 | 13884 ft | 389 kts | 7° |
| 2026-05-08 00:54 | 34.09087 | -84.47787 | 14390 ft | 397 kts | 7° |
| 2026-05-08 00:55 | 34.11745 | -84.46802 | 14905 ft | 403 kts | 7° |
| 2026-05-08 00:55 | 34.14443 | -84.45801 | 15440 ft | 409 kts | 7° |
| 2026-05-08 00:55 | 34.17184 | -84.44784 | 15982 ft | 414 kts | 7° |
| 2026-05-08 00:55 | 34.19953 | -84.43756 | 16535 ft | 419 kts | 7° |
| 2026-05-08 00:56 | 34.22758 | -84.42713 | 17086 ft | 424 kts | 7° |
| 2026-05-08 00:56 | 34.25593 | -84.41661 | 17673 ft | 428 kts | 7° |
| 2026-05-08 00:56 | 34.28461 | -84.40661 | 18233 ft | 427 kts | 2° |
| 2026-05-08 00:56 | 34.31359 | -84.40156 | 18749 ft | 416 kts | 352° |
| 2026-05-08 00:57 | 34.34241 | -84.40111 | 19255 ft | 415 kts | 348° |
| 2026-05-08 00:57 | 34.37138 | -84.40141 | 19774 ft | 418 kts | 348° |
| 2026-05-08 00:57 | 34.40066 | -84.40168 | 20295 ft | 422 kts | 348° |
| 2026-05-08 00:57 | 34.43012 | -84.40189 | 20828 ft | 425 kts | 348° |
| 2026-05-08 00:58 | 34.45983 | -84.40208 | 21366 ft | 428 kts | 348° |
| 2026-05-08 00:58 | 34.48934 | -84.40223 | 21905 ft | 431 kts | 348° |
| 2026-05-08 00:58 | 34.51942 | -84.40240 | 22459 ft | 433 kts | 348° |
| 2026-05-08 00:58 | 34.54959 | -84.40255 | 23033 ft | 435 kts | 348° |
| 2026-05-08 00:59 | 34.57997 | -84.40270 | 23612 ft | 438 kts | 348° |
| 2026-05-08 00:59 | 34.61052 | -84.40285 | 24101 ft | 441 kts | 348° |
| 2026-05-08 00:59 | 34.64170 | -84.40300 | 24605 ft | 444 kts | 347° |